createdAt,value
2019-03-17T00:01:17.451Z,5.67
2019-03-17T00:03:45.811Z,4.37
2019-03-17T00:06:14.126Z,2.60
2019-03-17T00:08:42.480Z,3.77
2019-03-17T00:11:10.787Z,6.77
2019-03-17T00:13:39.059Z,4.30
2019-03-17T00:16:07.430Z,3.30
2019-03-17T00:18:35.711Z,5.70
2019-03-17T00:21:04.013Z,4.03
2019-03-17T00:23:32.368Z,4.03
2019-03-17T00:26:00.664Z,3.87
2019-03-17T00:28:28.951Z,5.37
2019-03-17T00:30:57.252Z,2.53
2019-03-17T00:33:25.622Z,3.30
2019-03-17T00:35:53.903Z,5.73
2019-03-17T00:38:22.280Z,2.97
2019-03-17T00:40:50.564Z,4.20
2019-03-17T00:43:18.935Z,4.53
2019-03-17T00:45:47.209Z,4.10
2019-03-17T00:48:15.513Z,2.93
2019-03-17T00:50:43.771Z,3.57
2019-03-17T00:53:12.081Z,3.77
2019-03-17T00:55:40.427Z,3.10
2019-03-17T00:58:08.822Z,4.03
2019-03-17T01:00:37.204Z,6.77
2019-03-17T01:03:05.578Z,3.83
2019-03-17T01:05:33.913Z,3.70
2019-03-17T01:08:02.293Z,4.73
2019-03-17T01:10:30.624Z,5.97
2019-03-17T01:12:58.935Z,3.50
2019-03-17T01:15:27.224Z,3.10
2019-03-17T01:17:55.582Z,3.27
2019-03-17T01:20:23.944Z,4.23
2019-03-17T01:22:52.316Z,5.27
2019-03-17T01:25:20.619Z,4.30
2019-03-17T01:27:49.049Z,4.10
2019-03-17T01:30:17.346Z,4.97
2019-03-17T01:32:45.710Z,7.90
2019-03-17T01:35:14.017Z,4.33
2019-03-17T01:37:42.303Z,8.13
2019-03-17T01:40:10.592Z,3.67
2019-03-17T01:42:38.874Z,4.33
2019-03-17T01:45:07.829Z,4.93
2019-03-17T01:47:36.167Z,6.23
2019-03-17T01:50:04.935Z,4.27
2019-03-17T01:52:33.221Z,6.83
2019-03-17T01:55:01.523Z,5.63
2019-03-17T01:57:29.792Z,4.17
2019-03-17T01:59:58.111Z,4.87
2019-03-17T02:02:26.456Z,6.90
2019-03-17T02:04:54.805Z,5.03
2019-03-17T02:07:23.107Z,4.43
2019-03-17T02:09:51.399Z,5.60
2019-03-17T02:12:19.867Z,5.23
2019-03-17T02:14:48.173Z,8.10
2019-03-17T02:17:16.488Z,7.33
2019-03-17T02:19:44.758Z,6.17
2019-03-17T02:22:13.064Z,4.20
2019-03-17T02:24:41.330Z,5.50
2019-03-17T02:27:09.627Z,7.40
2019-03-17T02:29:37.907Z,7.17
2019-03-17T02:32:06.219Z,4.63
2019-03-17T02:34:34.567Z,4.97
2019-03-17T02:37:02.883Z,6.90
2019-03-17T02:39:31.168Z,4.83
2019-03-17T02:41:59.616Z,8.43
2019-03-17T02:44:27.971Z,5.30
2019-03-17T02:46:56.347Z,4.23
2019-03-17T02:49:24.641Z,10.10
2019-03-17T02:51:53.023Z,8.50
2019-03-17T02:54:21.385Z,6.23
2019-03-17T02:56:49.685Z,7.60
2019-03-17T02:59:17.958Z,9.00
2019-03-17T03:01:46.269Z,7.53
2019-03-17T03:04:14.551Z,6.23
2019-03-17T03:06:42.876Z,6.70
2019-03-17T03:09:11.180Z,11.87
2019-03-17T03:11:39.458Z,8.17
2019-03-17T03:14:07.763Z,9.70
2019-03-17T03:16:36.035Z,9.10
2019-03-17T03:19:04.354Z,11.13
2019-03-17T03:21:32.708Z,8.53
2019-03-17T03:24:01.012Z,11.47
2019-03-17T03:26:29.358Z,7.53
2019-03-17T03:28:57.664Z,8.27
2019-03-17T03:31:25.932Z,7.47
2019-03-17T03:33:54.308Z,8.87
2019-03-17T03:36:22.598Z,10.27
2019-03-17T03:38:50.904Z,9.77
2019-03-17T03:41:19.307Z,6.60
2019-03-17T03:43:47.629Z,9.13
2019-03-17T03:46:15.931Z,10.20
2019-03-17T03:48:44.240Z,8.43
2019-03-17T03:51:12.580Z,8.17
2019-03-17T03:53:40.874Z,8.77
2019-03-17T03:56:09.220Z,9.37
2019-03-17T03:58:37.527Z,5.73
2019-03-17T04:01:05.876Z,8.17
2019-03-17T04:03:34.254Z,10.33
2019-03-17T04:06:02.694Z,11.27
2019-03-17T04:08:31.044Z,15.63
2019-03-17T04:10:59.347Z,8.60
2019-03-17T04:13:27.650Z,6.77
2019-03-17T04:15:56.000Z,11.93
2019-03-17T04:18:24.279Z,9.00
2019-03-17T04:20:52.578Z,9.40
2019-03-17T04:23:20.858Z,6.70
2019-03-17T04:25:49.231Z,6.20
2019-03-17T04:28:17.605Z,9.37
2019-03-17T04:30:45.897Z,6.00
2019-03-17T04:33:14.171Z,7.37
2019-03-17T04:35:42.474Z,7.23
2019-03-17T04:38:10.775Z,9.87
2019-03-17T04:40:39.070Z,8.60
2019-03-17T04:43:07.385Z,12.43
2019-03-17T04:45:35.754Z,7.10
2019-03-17T04:48:04.128Z,6.00
2019-03-17T04:50:32.438Z,10.97
2019-03-17T04:53:00.740Z,8.20
2019-03-17T04:55:29.004Z,6.50
2019-03-17T04:57:57.310Z,9.97
2019-03-17T05:00:25.670Z,8.70
2019-03-17T05:02:53.960Z,12.80
2019-03-17T05:05:22.272Z,11.03
2019-03-17T05:07:50.723Z,11.17
2019-03-17T05:10:19.024Z,9.33
2019-03-17T05:12:47.328Z,7.33
2019-03-17T05:15:15.603Z,6.60
2019-03-17T05:17:43.963Z,7.57
2019-03-17T05:20:12.309Z,8.10
2019-03-17T05:22:40.600Z,8.60
2019-03-17T05:25:08.873Z,10.03
2019-03-17T05:27:37.195Z,11.23
2019-03-17T05:30:07.037Z,6.63
2019-03-17T05:32:35.325Z,9.47
2019-03-17T05:35:04.523Z,11.20
2019-03-17T05:37:32.797Z,10.10
2019-03-17T05:40:01.121Z,11.00
2019-03-17T05:42:29.397Z,5.30
2019-03-17T05:44:59.254Z,8.00
2019-03-17T05:47:27.532Z,8.33
2019-03-17T05:49:55.845Z,10.53
2019-03-17T05:52:24.120Z,7.27
2019-03-17T05:54:52.417Z,9.60
2019-03-17T05:57:20.702Z,9.07
2019-03-17T05:59:48.995Z,6.40
2019-03-17T06:02:17.275Z,9.00
2019-03-17T06:04:45.595Z,8.40
2019-03-17T06:07:18.741Z,8.90
2019-03-17T06:09:43.929Z,9.13
2019-03-17T06:12:12.211Z,8.13
2019-03-17T06:14:40.520Z,6.20
2019-03-17T06:17:08.821Z,8.60
2019-03-17T06:19:37.104Z,7.30
2019-03-17T06:22:05.407Z,8.83
2019-03-17T06:24:33.780Z,8.50
2019-03-17T06:27:02.052Z,9.80
2019-03-17T06:29:30.417Z,5.57
2019-03-17T06:31:58.775Z,8.67
2019-03-17T06:34:27.039Z,7.50
2019-03-17T06:36:55.342Z,5.93
2019-03-17T06:39:23.611Z,8.27
2019-03-17T06:41:51.931Z,7.23
2019-03-17T06:44:20.195Z,3.43
2019-03-17T06:46:48.495Z,7.07
2019-03-17T06:49:16.763Z,8.60
2019-03-17T06:51:45.071Z,7.30
2019-03-17T06:54:13.345Z,5.53
2019-03-17T06:56:41.638Z,6.47
2019-03-17T06:59:09.977Z,6.23
2019-03-17T07:01:38.290Z,5.40
2019-03-17T07:04:06.554Z,11.53
2019-03-17T07:06:34.850Z,4.87
2019-03-17T07:09:04.660Z,4.83
2019-03-17T07:11:32.958Z,3.87
2019-03-17T07:14:01.310Z,4.47
2019-03-17T07:16:29.753Z,3.63
2019-03-17T07:18:58.031Z,4.10
2019-03-17T07:21:26.312Z,5.03
2019-03-17T07:23:54.691Z,6.97
2019-03-17T07:26:22.966Z,3.93
2019-03-17T07:28:51.264Z,4.40
2019-03-17T07:31:19.537Z,4.33
2019-03-17T07:33:47.860Z,7.27
2019-03-17T07:36:16.133Z,7.20
2019-03-17T07:38:44.431Z,4.93
2019-03-17T07:41:12.768Z,3.33
2019-03-17T07:43:41.057Z,2.70
2019-03-17T07:46:09.331Z,1.77
2019-03-17T07:48:37.630Z,5.83
2019-03-17T07:51:05.963Z,3.60
2019-03-17T07:53:34.269Z,1.87
2019-03-17T07:56:02.546Z,6.20
2019-03-17T07:58:30.838Z,3.13
2019-03-17T08:01:01.165Z,3.80
2019-03-17T08:03:29.104Z,2.33
2019-03-17T08:05:57.381Z,3.43
2019-03-17T08:08:25.678Z,3.17
2019-03-17T08:10:54.051Z,6.87
2019-03-17T08:13:22.349Z,3.80
2019-03-17T08:15:50.793Z,2.23
2019-03-17T08:18:19.090Z,2.40
2019-03-17T08:20:47.385Z,3.33
2019-03-17T08:23:15.668Z,2.73
2019-03-17T08:25:43.971Z,5.63
2019-03-17T08:28:12.235Z,3.20
2019-03-17T08:30:52.390Z,4.20
2019-03-17T08:33:10.510Z,3.53
2019-03-17T08:35:38.832Z,3.57
2019-03-17T08:38:07.115Z,4.10
2019-03-17T08:40:35.432Z,4.80
2019-03-17T08:43:03.703Z,3.20
2019-03-17T08:45:32.007Z,5.97
2019-03-17T08:48:00.357Z,2.87
2019-03-17T08:50:28.730Z,7.80
2019-03-17T08:52:57.072Z,4.33
2019-03-17T08:55:25.444Z,4.17
2019-03-17T08:57:53.802Z,7.17
2019-03-17T09:00:22.087Z,5.00
2019-03-17T09:02:50.375Z,7.80
2019-03-17T09:05:18.707Z,5.97
2019-03-17T09:07:47.908Z,4.47
2019-03-17T09:10:16.270Z,5.40
2019-03-17T09:12:44.648Z,5.27
2019-03-17T09:15:13.016Z,5.70
2019-03-17T09:17:41.343Z,6.00
2019-03-17T09:20:11.215Z,5.40
2019-03-17T09:22:39.596Z,4.53
2019-03-17T09:25:11.074Z,6.30
2019-03-17T09:27:39.606Z,5.20
2019-03-17T09:30:09.419Z,5.30
2019-03-17T09:32:37.733Z,4.47
2019-03-17T09:35:07.101Z,5.23
2019-03-17T09:37:35.473Z,7.43
2019-03-17T09:40:16.251Z,2.87
2019-03-17T09:42:44.557Z,4.77
2019-03-17T09:45:13.414Z,2.67
2019-03-17T09:47:41.859Z,6.73
2019-03-17T09:50:11.670Z,2.80
2019-03-17T09:52:39.944Z,2.60
2019-03-17T09:55:08.732Z,4.10
2019-03-17T09:57:37.072Z,5.10
2019-03-17T10:00:06.938Z,3.47
2019-03-17T10:02:35.206Z,3.70
2019-03-17T10:05:04.799Z,3.87
2019-03-17T10:07:33.153Z,3.13
2019-03-17T10:10:01.523Z,5.60
2019-03-17T10:12:29.788Z,4.27
2019-03-17T10:14:58.102Z,2.67
2019-03-17T10:17:27.574Z,4.43
2019-03-17T10:19:55.947Z,3.27
2019-03-17T10:22:24.230Z,3.17
2019-03-17T10:24:52.555Z,2.93
2019-03-17T10:27:20.916Z,7.17
2019-03-17T10:29:49.274Z,5.23
2019-03-17T10:32:17.570Z,3.07
2019-03-17T10:34:45.888Z,9.43
2019-03-17T10:37:14.165Z,5.57
2019-03-17T10:39:42.493Z,4.17
2019-03-17T10:42:10.842Z,4.77
2019-03-17T10:44:39.145Z,4.70
2019-03-17T10:47:07.433Z,4.47
2019-03-17T10:49:35.711Z,4.03
2019-03-17T10:52:04.083Z,5.13
2019-03-17T10:54:32.425Z,4.10
2019-03-17T10:57:00.751Z,5.07
2019-03-17T10:59:29.028Z,4.57
2019-03-17T11:01:57.358Z,5.50
2019-03-17T11:04:25.719Z,7.07
2019-03-17T11:06:54.052Z,5.80
2019-03-17T11:09:25.383Z,6.73
2019-03-17T11:11:52.456Z,6.17
2019-03-17T11:14:20.758Z,3.57
2019-03-17T11:16:50.005Z,3.37
2019-03-17T11:19:18.320Z,4.80
2019-03-17T11:21:46.634Z,5.03
2019-03-17T11:24:14.978Z,3.30
2019-03-17T11:26:43.297Z,3.60
2019-03-17T11:29:11.657Z,3.20
2019-03-17T11:31:40.094Z,3.27
2019-03-17T11:34:08.450Z,3.00
2019-03-17T11:36:36.753Z,2.80
2019-03-17T11:39:05.802Z,2.40
2019-03-17T11:41:34.117Z,2.40
2019-03-17T11:44:02.437Z,2.57
2019-03-17T11:46:30.863Z,3.00
2019-03-17T11:48:59.374Z,3.23
2019-03-17T11:51:27.655Z,2.67
2019-03-17T11:53:56.013Z,2.90
2019-03-17T11:56:24.308Z,1.67
2019-03-17T11:58:52.686Z,3.83
2019-03-17T12:01:20.999Z,3.00
2019-03-17T12:03:49.389Z,2.53
2019-03-17T12:06:17.731Z,3.60
2019-03-17T12:08:46.134Z,2.43
2019-03-17T12:11:14.523Z,2.53
2019-03-17T12:13:43.021Z,2.63
2019-03-17T12:16:11.459Z,2.80
2019-03-17T12:18:39.821Z,1.07
2019-03-17T12:21:08.173Z,2.10
2019-03-17T12:23:36.556Z,2.40
2019-03-17T12:26:04.853Z,0.97
2019-03-17T12:28:33.235Z,2.63
2019-03-17T12:31:02.078Z,0.90
2019-03-17T12:33:30.549Z,2.73
2019-03-17T12:35:58.872Z,0.80
2019-03-17T12:38:27.284Z,0.93
2019-03-17T12:40:55.696Z,1.10
2019-03-17T12:43:24.069Z,0.67
2019-03-17T12:45:52.524Z,1.30
2019-03-17T12:48:20.956Z,0.80
2019-03-17T12:50:49.362Z,1.50
2019-03-17T12:53:17.652Z,2.63
2019-03-17T12:55:45.997Z,2.20
2019-03-17T12:58:14.997Z,2.33
2019-03-17T13:00:43.567Z,1.27
2019-03-17T13:03:22.467Z,4.77
2019-03-17T13:05:55.116Z,2.97
2019-03-17T13:08:23.390Z,2.83
2019-03-17T13:10:51.731Z,3.70
2019-03-17T13:13:20.089Z,3.97
2019-03-17T13:15:48.486Z,2.90
2019-03-17T13:18:16.831Z,2.83
2019-03-17T13:20:45.179Z,2.73
2019-03-17T13:23:13.518Z,2.20
2019-03-17T13:25:41.835Z,4.10
2019-03-17T13:28:10.191Z,4.10
2019-03-17T13:30:38.558Z,4.33
2019-03-17T13:33:06.899Z,3.97
2019-03-17T13:35:35.324Z,3.77
2019-03-17T13:38:03.737Z,3.43
2019-03-17T13:40:32.110Z,2.93
2019-03-17T13:43:00.554Z,3.87
2019-03-17T13:45:28.841Z,3.33
2019-03-17T13:47:57.223Z,3.83
2019-03-17T13:50:25.587Z,3.20
2019-03-17T13:52:53.959Z,2.67
2019-03-17T13:55:22.360Z,3.30
2019-03-17T13:57:55.164Z,2.50
2019-03-17T14:00:23.444Z,2.67
2019-03-17T14:02:51.770Z,1.63
2019-03-17T14:05:20.178Z,3.53
2019-03-17T14:07:48.468Z,3.10
2019-03-17T14:10:17.137Z,0.83
2019-03-17T14:12:45.517Z,1.43
2019-03-17T14:15:14.157Z,3.93
2019-03-17T14:17:42.578Z,5.13
2019-03-17T14:20:12.125Z,1.77
2019-03-17T14:22:40.426Z,2.00
2019-03-17T14:25:10.277Z,2.60
2019-03-17T14:27:38.610Z,1.67
2019-03-17T14:30:08.487Z,1.80
2019-03-17T14:32:36.846Z,3.47
2019-03-17T14:35:05.624Z,4.57
2019-03-17T14:37:33.985Z,4.33
2019-03-17T14:40:03.440Z,3.20
2019-03-17T14:42:31.729Z,3.27
2019-03-17T14:45:01.992Z,2.40
2019-03-17T14:47:30.271Z,8.07
2019-03-17T14:49:58.630Z,3.43
2019-03-17T14:52:26.928Z,3.80
2019-03-17T14:54:55.299Z,3.63
2019-03-17T14:57:23.594Z,2.87
2019-03-17T14:59:51.970Z,4.60
2019-03-17T15:02:20.265Z,4.43
2019-03-17T15:04:48.603Z,3.53
2019-03-17T15:07:16.934Z,2.70
2019-03-17T15:09:45.307Z,1.90
2019-03-17T15:12:13.662Z,3.43
2019-03-17T15:14:42.064Z,2.27
2019-03-17T15:17:10.424Z,4.87
2019-03-17T15:19:38.859Z,2.67
2019-03-17T15:22:07.252Z,2.93
2019-03-17T15:24:35.536Z,3.17
2019-03-17T15:27:03.846Z,3.53
2019-03-17T15:29:32.141Z,1.57
2019-03-17T15:32:00.443Z,4.67
2019-03-17T15:34:28.718Z,3.53
2019-03-17T15:36:57.028Z,2.17
2019-03-17T15:39:25.316Z,1.57
2019-03-17T15:41:53.642Z,3.37
2019-03-17T15:44:21.924Z,1.53
2019-03-17T15:46:50.327Z,3.27
2019-03-17T15:49:18.620Z,1.60
2019-03-17T15:51:47.100Z,3.13
2019-03-17T15:54:15.475Z,3.43
2019-03-17T15:56:43.797Z,3.30
2019-03-17T15:59:12.237Z,1.10
2019-03-17T16:01:40.645Z,2.60
2019-03-17T16:04:10.954Z,2.50
2019-03-17T16:06:39.271Z,1.67
2019-03-17T16:09:07.826Z,2.73
2019-03-17T16:11:36.142Z,2.60
2019-03-17T16:14:04.508Z,4.57
2019-03-17T16:16:32.788Z,3.83
2019-03-17T16:19:01.107Z,2.30
2019-03-17T16:21:29.465Z,2.53
2019-03-17T16:23:57.796Z,4.97
2019-03-17T16:26:26.182Z,3.07
2019-03-17T16:28:54.564Z,3.73
2019-03-17T16:31:23.011Z,3.77
2019-03-17T16:33:51.311Z,2.33
2019-03-17T16:36:19.615Z,3.10
2019-03-17T16:38:48.000Z,2.90
2019-03-17T16:41:16.275Z,4.07
2019-03-17T16:43:44.615Z,2.70
2019-03-17T16:46:13.063Z,2.47
2019-03-17T16:48:41.428Z,3.47
2019-03-17T16:51:09.947Z,3.60
2019-03-17T16:53:38.243Z,2.40
2019-03-17T16:56:06.518Z,3.93
2019-03-17T16:58:34.911Z,4.67
2019-03-17T17:01:03.325Z,4.33
2019-03-17T17:03:31.676Z,3.33
2019-03-17T17:05:59.980Z,4.63
2019-03-17T17:08:28.282Z,4.53
2019-03-17T17:10:56.612Z,3.93
2019-03-17T17:13:24.924Z,4.73
2019-03-17T17:15:53.302Z,2.83
2019-03-17T17:18:21.588Z,2.97
2019-03-17T17:20:49.902Z,2.90
2019-03-17T17:23:18.353Z,4.00
2019-03-17T17:25:46.795Z,5.70
2019-03-17T17:28:15.133Z,6.03
2019-03-17T17:30:43.515Z,4.77
2019-03-17T17:33:11.802Z,4.10
2019-03-17T17:35:40.212Z,3.00
2019-03-17T17:38:08.503Z,3.70
2019-03-17T17:40:37.052Z,2.43
2019-03-17T17:43:05.389Z,3.83
2019-03-17T17:45:33.763Z,4.60
2019-03-17T17:48:02.114Z,4.67
2019-03-17T17:50:30.809Z,2.93
2019-03-17T17:52:59.085Z,2.10
2019-03-17T17:55:27.527Z,2.40
2019-03-17T17:57:56.036Z,4.50
2019-03-17T18:00:24.435Z,2.87
2019-03-17T18:02:52.915Z,3.30
2019-03-17T18:05:24.242Z,2.80
2019-03-17T18:07:52.682Z,3.60
2019-03-17T18:10:21.134Z,3.60
2019-03-17T18:12:49.618Z,3.43
2019-03-17T18:15:19.538Z,4.13
2019-03-17T18:17:47.980Z,2.20
2019-03-17T18:20:16.345Z,1.83
2019-03-17T18:22:44.870Z,3.90
2019-03-17T18:25:14.153Z,2.13
2019-03-17T18:27:42.632Z,3.93
2019-03-17T18:30:15.182Z,3.90
2019-03-17T18:32:43.658Z,1.83
2019-03-17T18:35:12.288Z,1.03
2019-03-17T18:37:40.796Z,1.73
2019-03-17T18:40:10.302Z,1.90
2019-03-17T18:42:38.716Z,1.67
2019-03-17T18:45:09.561Z,2.17
2019-03-17T18:47:38.006Z,2.73
2019-03-17T18:50:19.483Z,2.17
2019-03-17T18:52:39.924Z,1.60
2019-03-17T18:55:11.694Z,1.57
2019-03-17T18:57:40.532Z,1.73
2019-03-17T19:00:12.600Z,2.20
2019-03-17T19:02:41.457Z,1.37
2019-03-17T19:05:13.352Z,1.83
2019-03-17T19:07:42.491Z,3.27
2019-03-17T19:10:13.858Z,2.07
2019-03-17T19:12:45.711Z,0.83
2019-03-17T19:15:18.585Z,0.90
2019-03-17T19:17:47.588Z,1.40
2019-03-17T19:20:19.690Z,0.70
2019-03-17T19:22:48.664Z,2.13
2019-03-17T19:25:18.783Z,1.20
2019-03-17T19:27:47.704Z,2.90
2019-03-17T19:30:18.681Z,1.90
2019-03-17T19:32:47.591Z,1.40
2019-03-17T19:35:16.599Z,1.07
2019-03-17T19:37:45.536Z,2.17
2019-03-17T19:40:18.614Z,5.07
2019-03-17T19:42:58.208Z,1.97
2019-03-17T19:45:18.047Z,1.30
2019-03-17T19:47:48.186Z,2.10
2019-03-17T19:50:18.204Z,1.30
2019-03-17T19:52:47.103Z,2.20
2019-03-17T19:55:15.970Z,1.20
2019-03-17T19:57:44.877Z,1.30
2019-03-17T20:00:15.317Z,2.97
2019-03-17T20:02:47.029Z,2.80
2019-03-17T20:05:14.978Z,2.53
2019-03-17T20:07:43.813Z,4.57
2019-03-17T20:10:21.398Z,3.63
2019-03-17T20:12:50.232Z,3.30
2019-03-17T20:15:22.510Z,2.53
2019-03-17T20:17:51.335Z,2.30
2019-03-17T20:20:20.217Z,1.97
2019-03-17T20:22:49.117Z,2.73
2019-03-17T20:25:17.850Z,2.43
2019-03-17T20:27:46.730Z,4.80
2019-03-17T20:30:17.349Z,2.10
2019-03-17T20:32:46.393Z,2.07
2019-03-17T20:35:15.305Z,2.60
2019-03-17T20:37:44.222Z,1.97
2019-03-17T20:40:17.980Z,3.83
2019-03-17T20:42:46.733Z,1.70
2019-03-17T20:45:20.314Z,1.40
2019-03-17T20:47:48.793Z,2.97
2019-03-17T20:50:18.567Z,2.40
2019-03-17T20:52:47.306Z,2.50
2019-03-17T20:55:16.301Z,2.30
2019-03-17T20:57:45.184Z,3.20
2019-03-17T21:00:15.872Z,2.27
2019-03-17T21:02:44.692Z,4.63
2019-03-17T21:05:13.648Z,3.77
2019-03-17T21:07:42.706Z,5.33
2019-03-17T21:10:15.001Z,2.23
2019-03-17T21:12:43.960Z,2.03
2019-03-17T21:15:13.920Z,1.30
2019-03-17T21:17:42.721Z,2.07
2019-03-17T21:20:13.300Z,2.53
2019-03-17T21:22:42.151Z,4.73
2019-03-17T21:25:11.246Z,3.23
2019-03-17T21:27:40.091Z,2.57
2019-03-17T21:30:19.533Z,1.90
2019-03-17T21:32:48.314Z,1.87
2019-03-17T21:35:17.187Z,2.63
2019-03-17T21:37:46.041Z,3.53
2019-03-17T21:40:14.944Z,2.47
2019-03-17T21:42:43.653Z,2.63
2019-03-17T21:45:13.405Z,2.13
2019-03-17T21:47:42.184Z,2.63
2019-03-17T21:50:17.859Z,2.07
2019-03-17T21:52:46.711Z,3.60
2019-03-17T21:55:15.640Z,3.83
2019-03-17T21:57:44.537Z,3.47
2019-03-17T22:00:15.148Z,2.97
2019-03-17T22:02:43.885Z,2.40
2019-03-17T22:05:13.520Z,2.80
2019-03-17T22:07:49.697Z,3.13
2019-03-17T22:10:15.356Z,3.07
2019-03-17T22:12:44.215Z,3.77
2019-03-17T22:15:13.987Z,4.50
2019-03-17T22:17:42.856Z,3.13
2019-03-17T22:20:12.694Z,2.27
2019-03-17T22:22:41.662Z,4.93
2019-03-17T22:25:16.473Z,7.17
2019-03-17T22:27:45.282Z,6.33
2019-03-17T22:30:15.428Z,3.73
2019-03-17T22:32:44.267Z,6.13
2019-03-17T22:35:12.980Z,3.63
2019-03-17T22:37:41.784Z,2.70
2019-03-17T22:40:14.218Z,4.43
2019-03-17T22:42:43.089Z,4.33
2019-03-17T22:45:15.410Z,6.20
2019-03-17T22:47:44.219Z,4.63
2019-03-17T22:50:16.636Z,5.03
2019-03-17T22:52:45.521Z,3.57
2019-03-17T22:55:14.527Z,3.87
2019-03-17T22:57:43.426Z,3.57
2019-03-17T23:00:16.659Z,3.23
2019-03-17T23:02:45.388Z,2.43
2019-03-17T23:05:14.234Z,4.30
2019-03-17T23:07:43.037Z,4.70
2019-03-17T23:10:12.300Z,3.97
2019-03-17T23:12:41.055Z,5.60
2019-03-17T23:15:11.553Z,3.83
2019-03-17T23:17:40.261Z,3.27
2019-03-17T23:20:15.999Z,3.00
2019-03-17T23:22:44.851Z,2.57
2019-03-17T23:25:13.719Z,2.37
2019-03-17T23:27:42.480Z,2.97
2019-03-17T23:30:15.785Z,3.27
2019-03-17T23:32:44.561Z,4.13
2019-03-17T23:35:13.505Z,2.20
2019-03-17T23:37:42.296Z,3.37
2019-03-17T23:40:12.329Z,3.77
2019-03-17T23:42:41.020Z,3.50
2019-03-17T23:45:10.785Z,5.30
2019-03-17T23:47:39.507Z,3.57
2019-03-17T23:50:10.340Z,3.77
2019-03-17T23:52:39.118Z,5.13
2019-03-17T23:55:10.161Z,4.50
2019-03-17T23:57:38.872Z,3.03
